Aérodrome :
LOGIN :

S'inscrire | Disclaimer

   EN    FR    IT 

 










Légende :    VFR   VFR Marginal   IFR   IFR Intensif   IFR Très Intensif
Visi : 
Plafond : 
>= 8 km
>= 3000ft
5 à 8 km
1000 à 3000 ft
1500m à 5 km
500 à 1000 ft
800 à 1500m
200 à 500 ft
< 800m
< 200 ft
Symboles :   Orages  Brouillard  Fortes neiges  Fortes précipitations  Vent > 20 kt
SIGMETs :   Divers  Orages  Givrage  Turbulence  Onde Orograph.  Cendres Volcan.







- Altitude de l'aérodrome : 202 ft
- Code IATA : LGW
- Voir les cartes d'approche


EGKK - London Gatwick

DERNIER METAR :
  • 250920Z VRB07G17KT 9000 FEW007 20/18 Q1017

METARs EXPIRÉS :
  • 250850Z 36006KT 9000 FEW008 20/18 Q1017
  • 250820Z 32005KT 290V360 8000 FEW005 19/18 Q1017
  • 250750Z 32005KT 220V350 8000 -RA FEW042 18/18 Q1017
  • 250720Z VRB05KT 9000 -RA SCT007 SCT030 18/17 Q1016
  • 250650Z VRB04KT 8000 SCT008 SCT015 18/17 Q1016

TAF AMD TAF EGKK
Valide du 25 à 07h jusqu'au 26 à 12h UTC


250702Z 2507/2612 34006KT 9999 SCT025
TEMPO 2507/2510 7000 SHRA
PROB30
TEMPO 2507/2509 BKN008
PROB40
TEMPO 2509/2512 BKN010
PROB30
TEMPO 2512/2518 8000 SHRA
BECMG 2520/2523 04010KT BKN008
PROB30 2523/2607 6000 BKN004
BECMG 2607/2610 FEW016
Pas de NOTAMs connus pour ce terrain.
2 SIGMETs publiés pour la FIR London (EGTT) :
 
Orages noyés dans la masse
EGTT SIGMET 03 VALID 250900/251300 EGRR
EGTT LONDON FIR EMBD TS FCST WI N5227 E00059 - N5253 W00041 - N5455 W00022 - N5446 E00155 - N5408 E00336 - N5227 E00059 TOP FL350 MOV NNE 20KT WKN=
Orages noyés dans la masse
EGTT SIGMET 02 VALID 250500/250900 EGRR
EGTT LONDON FIR EMBD TS FCST WI N5130 E00200 - N5107 E00200 - N5100 E00128 - N5045 E00033 - N5130 W00054 - N5312 W00009 - N5245 E00303 - N5130 E00200 TOP FL360 MOV NNE 20KT WKN=



MET'MAP, la Météo Aéronautique d'un coup d'oeil ! - Copyright ORBIFLY Décembre 2007 - Disclaimer

ORBIFLY MET'MAP TEAM :

Programmation & Développement : Alexandra Zaïnal
Conception & Développement : Baudouin d'Aumeries
Co-Programmation & Développement : Marc-Olivier Méhu
Soutien technique & logistique : Manuel Goepfert

Contact : metmap@orbifly.com




SOURCES & CREDITS :

   NOAA